createdAt,value
2018-10-16T00:01:12.769Z,99.90
2018-10-16T00:03:39.493Z,99.90
2018-10-16T00:06:06.658Z,99.90
2018-10-16T00:08:33.298Z,99.90
2018-10-16T00:10:59.962Z,99.90
2018-10-16T00:13:26.612Z,99.90
2018-10-16T00:15:53.306Z,99.90
2018-10-16T00:18:19.945Z,99.90
2018-10-16T00:20:46.615Z,99.90
2018-10-16T00:23:13.244Z,99.90
2018-10-16T00:25:39.924Z,99.90
2018-10-16T00:28:06.997Z,99.90
2018-10-16T00:30:33.676Z,99.90
2018-10-16T00:33:00.337Z,99.90
2018-10-16T00:35:27.001Z,99.90
2018-10-16T00:37:53.642Z,99.90
2018-10-16T00:40:20.329Z,99.90
2018-10-16T00:42:47.001Z,99.90
2018-10-16T00:45:13.644Z,99.90
2018-10-16T00:47:40.325Z,99.90
2018-10-16T00:50:07.269Z,99.90
2018-10-16T00:52:33.933Z,99.90
2018-10-16T00:55:00.764Z,99.90
2018-10-16T01:00:00.658Z,99.90
2018-10-16T01:02:27.329Z,99.90
2018-10-16T01:04:53.999Z,99.90
2018-10-16T01:07:21.064Z,99.90
2018-10-16T01:09:47.726Z,99.90
2018-10-16T01:12:14.393Z,99.90
2018-10-16T01:14:41.033Z,99.90
2018-10-16T01:17:07.697Z,99.90
2018-10-16T01:19:34.359Z,99.90
2018-10-16T01:22:01.082Z,99.90
2018-10-16T01:24:27.707Z,99.90
2018-10-16T01:26:54.373Z,99.90
2018-10-16T01:29:21.024Z,99.90
2018-10-16T01:31:47.699Z,99.90
2018-10-16T01:34:14.341Z,99.90
2018-10-16T01:36:41.002Z,99.90
2018-10-16T01:39:07.673Z,99.90
2018-10-16T01:41:34.393Z,99.90
2018-10-16T01:44:01.029Z,99.90
2018-10-16T01:46:27.703Z,99.90
2018-10-16T01:48:54.349Z,99.90
2018-10-16T01:51:21.050Z,99.90
2018-10-16T01:53:47.711Z,99.90
2018-10-16T01:56:14.354Z,99.90
2018-10-16T01:58:41.014Z,99.90
2018-10-16T02:01:07.665Z,99.90
2018-10-16T02:03:34.325Z,99.90
2018-10-16T02:06:00.953Z,99.90
2018-10-16T02:08:27.621Z,99.90
2018-10-16T02:10:54.373Z,99.90
2018-10-16T02:13:27.933Z,99.90
2018-10-16T02:15:54.576Z,99.90
2018-10-16T02:18:21.249Z,99.90
2018-10-16T02:20:47.933Z,99.90
2018-10-16T02:23:14.597Z,99.90
2018-10-16T02:25:41.242Z,99.90
2018-10-16T02:28:07.910Z,99.90
2018-10-16T02:30:34.558Z,99.90
2018-10-16T02:33:01.247Z,99.90
2018-10-16T02:35:27.889Z,99.90
2018-10-16T02:37:54.574Z,99.90
2018-10-16T02:40:21.252Z,99.90
2018-10-16T02:42:47.919Z,99.90
2018-10-16T02:45:14.560Z,99.90
2018-10-16T02:47:41.234Z,99.90
2018-10-16T02:50:09.098Z,99.90
2018-10-16T02:52:35.818Z,99.90
2018-10-16T02:55:02.466Z,99.90
2018-10-16T02:57:29.159Z,99.90
2018-10-16T02:59:56.057Z,99.90
2018-10-16T03:02:22.817Z,99.90
2018-10-16T03:04:49.478Z,99.90
2018-10-16T03:07:16.155Z,99.90
2018-10-16T03:09:42.806Z,99.90
2018-10-16T03:12:09.466Z,99.90
2018-10-16T03:14:36.113Z,99.90
2018-10-16T03:17:02.809Z,99.90
2018-10-16T03:19:29.487Z,99.90
2018-10-16T03:21:56.210Z,99.90
2018-10-16T03:24:22.874Z,99.90
2018-10-16T03:26:49.549Z,99.90
2018-10-16T03:29:16.198Z,99.90
2018-10-16T03:31:42.866Z,99.90
2018-10-16T03:34:09.585Z,99.90
2018-10-16T03:36:36.841Z,99.90
2018-10-16T03:39:04.242Z,99.90
2018-10-16T03:41:30.929Z,99.90
2018-10-16T03:43:59.414Z,99.90
2018-10-16T03:46:26.190Z,99.90
2018-10-16T03:48:52.846Z,99.90
2018-10-16T03:51:19.496Z,99.90
2018-10-16T03:53:46.180Z,99.90
2018-10-16T03:56:12.816Z,99.90
2018-10-16T03:58:39.498Z,99.90
2018-10-16T04:01:06.138Z,99.90
2018-10-16T04:03:32.809Z,99.90
2018-10-16T04:05:59.450Z,99.90
2018-10-16T04:08:26.121Z,99.90
2018-10-16T04:10:52.770Z,99.90
2018-10-16T04:13:19.474Z,99.90
2018-10-16T04:15:46.078Z,99.90
2018-10-16T04:18:12.718Z,99.90
2018-10-16T04:20:39.378Z,99.90
2018-10-16T04:23:06.022Z,99.90
2018-10-16T04:25:32.642Z,99.90
2018-10-16T04:27:59.277Z,99.90
2018-10-16T04:30:25.893Z,99.90
2018-10-16T04:32:52.581Z,99.90
2018-10-16T04:35:19.206Z,99.90
2018-10-16T04:37:46.458Z,99.90
2018-10-16T04:40:13.298Z,99.90
2018-10-16T04:42:40.498Z,99.90
2018-10-16T04:45:08.170Z,99.90
2018-10-16T04:47:34.825Z,99.90
2018-10-16T04:50:01.443Z,99.90
2018-10-16T04:52:28.073Z,99.90
2018-10-16T04:54:54.726Z,99.90
2018-10-16T04:57:21.339Z,99.90
2018-10-16T04:59:48.054Z,99.90
2018-10-16T05:02:14.674Z,99.90
2018-10-16T05:04:41.314Z,99.90
2018-10-16T05:07:07.930Z,99.90
2018-10-16T05:09:34.586Z,99.90
2018-10-16T05:12:01.225Z,99.90
2018-10-16T05:14:27.889Z,99.90
2018-10-16T05:16:54.573Z,99.90
2018-10-16T05:19:21.178Z,99.90
2018-10-16T05:21:47.826Z,99.90
2018-10-16T05:24:14.481Z,99.90
2018-10-16T05:26:41.104Z,99.90
2018-10-16T05:29:08.763Z,99.90
2018-10-16T05:31:35.922Z,99.90
2018-10-16T05:34:02.459Z,99.90
2018-10-16T05:36:29.075Z,99.90
2018-10-16T05:38:55.741Z,99.90
2018-10-16T05:41:22.516Z,99.90
2018-10-16T05:43:49.166Z,99.90
2018-10-16T05:46:15.786Z,99.90
2018-10-16T05:48:42.434Z,99.90
2018-10-16T05:51:09.066Z,99.90
2018-10-16T05:53:35.706Z,99.90
2018-10-16T05:56:03.833Z,99.90
2018-10-16T05:58:30.480Z,99.90
2018-10-16T06:00:57.198Z,99.90
2018-10-16T06:03:23.874Z,99.90
2018-10-16T06:05:50.595Z,99.90
2018-10-16T06:08:17.134Z,99.90
2018-10-16T06:10:43.790Z,99.90
2018-10-16T06:13:10.450Z,99.90
2018-10-16T06:15:37.134Z,99.90
2018-10-16T06:18:03.786Z,99.90
2018-10-16T06:20:30.430Z,99.90
2018-10-16T06:22:57.050Z,99.90
2018-10-16T06:25:23.734Z,99.90
2018-10-16T06:27:50.422Z,99.90
2018-10-16T06:30:17.064Z,99.90
2018-10-16T06:32:43.614Z,99.90
2018-10-16T06:35:10.678Z,99.90
2018-10-16T06:37:37.527Z,99.90
2018-10-16T06:40:04.735Z,99.90
2018-10-16T06:42:31.427Z,99.90
2018-10-16T06:44:58.069Z,99.90
2018-10-16T06:47:24.772Z,99.90
2018-10-16T06:49:51.390Z,99.90
2018-10-16T06:52:18.470Z,99.90
2018-10-16T06:54:45.207Z,99.90
2018-10-16T06:57:11.809Z,99.90
2018-10-16T06:59:38.459Z,99.90
2018-10-16T07:02:05.070Z,99.90
2018-10-16T07:04:31.711Z,99.90
2018-10-16T07:06:58.421Z,99.90
2018-10-16T07:09:25.011Z,99.90
2018-10-16T07:11:51.642Z,99.90
2018-10-16T07:14:18.325Z,99.90
2018-10-16T07:16:44.970Z,99.90
2018-10-16T07:19:11.589Z,99.90
2018-10-16T07:21:38.541Z,99.90
2018-10-16T07:24:05.463Z,99.90
2018-10-16T07:26:31.995Z,99.90
2018-10-16T07:28:58.628Z,99.90
2018-10-16T07:31:25.998Z,99.90
2018-10-16T07:33:52.787Z,99.90
2018-10-16T07:36:19.433Z,99.90
2018-10-16T07:38:46.174Z,99.90
2018-10-16T07:41:12.756Z,99.90
2018-10-16T07:43:39.475Z,99.90
2018-10-16T07:46:06.122Z,99.90
2018-10-16T07:48:32.872Z,99.90
2018-10-16T07:50:59.514Z,99.90
2018-10-16T07:53:26.157Z,99.90
2018-10-16T07:55:52.809Z,99.90
2018-10-16T07:58:19.439Z,99.90
2018-10-16T08:00:46.073Z,99.90
2018-10-16T08:03:12.690Z,99.90
2018-10-16T08:05:39.360Z,99.90
2018-10-16T08:08:06.378Z,99.90
2018-10-16T08:10:33.150Z,99.90
2018-10-16T08:13:00.134Z,99.90
2018-10-16T08:15:26.859Z,99.90
2018-10-16T08:17:53.506Z,99.90
2018-10-16T08:20:20.176Z,99.90
2018-10-16T08:22:46.832Z,99.90
2018-10-16T08:25:13.499Z,99.90
2018-10-16T08:27:40.134Z,99.90
2018-10-16T08:30:07.166Z,99.90
2018-10-16T08:32:33.825Z,99.90
2018-10-16T08:35:00.510Z,99.90
2018-10-16T08:37:33.354Z,99.90
2018-10-16T08:39:59.982Z,99.90
2018-10-16T08:44:35.818Z,99.90
2018-10-16T08:47:08.294Z,99.90
2018-10-16T08:49:40.648Z,99.90
2018-10-16T08:52:07.328Z,99.90
2018-10-16T08:54:33.954Z,99.90
2018-10-16T08:57:00.610Z,99.90
2018-10-16T08:59:29.266Z,99.90
2018-10-16T09:01:55.913Z,99.90
2018-10-16T09:04:22.548Z,99.90
2018-10-16T09:06:49.251Z,99.90
2018-10-16T09:09:17.098Z,99.90
2018-10-16T09:11:44.998Z,99.90
2018-10-16T09:14:12.401Z,99.90
2018-10-16T09:16:39.009Z,99.90
2018-10-16T09:19:05.649Z,99.90
2018-10-16T09:21:32.343Z,99.90
2018-10-16T09:23:59.016Z,99.90
2018-10-16T09:26:25.683Z,99.90
2018-10-16T09:28:52.350Z,99.90
2018-10-16T09:31:18.989Z,99.90
2018-10-16T09:33:45.653Z,99.90
2018-10-16T09:36:12.277Z,99.90
2018-10-16T09:38:38.936Z,99.90
2018-10-16T09:41:05.779Z,99.90
2018-10-16T09:43:32.426Z,99.90
2018-10-16T09:45:59.071Z,99.90
2018-10-16T09:48:25.756Z,99.90
2018-10-16T09:50:52.494Z,99.90
2018-10-16T09:53:19.153Z,99.90
2018-10-16T09:55:45.801Z,99.90
2018-10-16T09:58:12.460Z,99.90
2018-10-16T10:00:44.733Z,99.90
2018-10-16T10:03:11.361Z,99.90
2018-10-16T10:05:38.002Z,99.90
2018-10-16T10:08:04.674Z,99.90
2018-10-16T10:10:31.330Z,99.90
2018-10-16T10:12:57.982Z,99.90
2018-10-16T10:15:24.635Z,99.90
2018-10-16T10:17:51.286Z,99.90
2018-10-16T10:20:17.930Z,99.90
2018-10-16T10:22:44.564Z,99.90
2018-10-16T10:25:11.229Z,99.80
2018-10-16T10:27:37.890Z,99.40
2018-10-16T10:30:11.103Z,99.10
2018-10-16T10:32:43.786Z,98.80
2018-10-16T10:35:16.564Z,99.00
2018-10-16T10:37:49.382Z,98.60
2018-10-16T10:40:22.187Z,97.90
2018-10-16T10:42:54.963Z,97.30
2018-10-16T10:45:27.910Z,97.40
2018-10-16T10:48:00.646Z,97.00
2018-10-16T10:50:33.643Z,97.90
2018-10-16T10:53:06.144Z,98.60
2018-10-16T10:55:38.962Z,98.10
2018-10-16T10:58:11.724Z,97.40
2018-10-16T11:00:44.530Z,97.00
2018-10-16T11:03:17.551Z,96.10
2018-10-16T11:05:50.325Z,95.80
2018-10-16T11:08:23.215Z,95.20
2018-10-16T11:10:55.918Z,94.70
2018-10-16T11:13:28.708Z,94.60
2018-10-16T11:16:01.338Z,92.30
2018-10-16T11:18:34.357Z,92.80
2018-10-16T11:21:07.481Z,92.70
2018-10-16T11:23:40.354Z,92.60
2018-10-16T11:26:13.082Z,91.50
2018-10-16T11:31:25.321Z,90.20
2018-10-16T11:33:58.077Z,87.80
2018-10-16T11:36:30.978Z,82.70
2018-10-16T11:39:05.358Z,76.90
2018-10-16T11:41:38.058Z,75.40
2018-10-16T11:44:11.962Z,75.00
2018-10-16T11:46:44.910Z,75.20
2018-10-16T11:49:17.609Z,76.50
2018-10-16T11:51:50.527Z,74.30
2018-10-16T11:54:23.472Z,71.30
2018-10-16T11:56:56.179Z,67.40
2018-10-16T11:59:29.001Z,67.20
2018-10-16T12:02:01.993Z,65.70
2018-10-16T12:04:34.763Z,66.10
2018-10-16T12:07:07.689Z,65.20
2018-10-16T12:09:40.323Z,66.30
2018-10-16T12:12:13.084Z,64.50
2018-10-16T12:14:45.935Z,64.30
2018-10-16T12:17:30.590Z,65.90
2018-10-16T12:20:23.290Z,64.20
2018-10-16T12:22:56.174Z,61.30
2018-10-16T12:25:28.944Z,62.50
2018-10-16T12:28:01.850Z,63.60
2018-10-16T12:30:34.771Z,64.90
2018-10-16T12:33:07.539Z,65.90
2018-10-16T12:35:40.190Z,67.30
2018-10-16T12:38:12.983Z,68.10
2018-10-16T12:40:45.850Z,69.20
2018-10-16T12:43:18.609Z,69.80
2018-10-16T12:45:51.400Z,71.30
2018-10-16T12:48:24.242Z,72.10
2018-10-16T12:50:57.160Z,72.90
2018-10-16T12:53:29.881Z,72.30
2018-10-16T12:56:02.832Z,71.30
2018-10-16T12:58:35.633Z,71.80
2018-10-16T13:01:08.393Z,71.40
2018-10-16T13:03:41.186Z,72.20
2018-10-16T13:06:13.834Z,72.60
2018-10-16T13:08:46.596Z,71.90
2018-10-16T13:11:20.113Z,73.10
2018-10-16T13:13:52.904Z,73.30
2018-10-16T13:16:26.222Z,73.00
2018-10-16T13:18:59.053Z,71.10
2018-10-16T13:21:31.884Z,69.70
2018-10-16T13:24:04.776Z,67.40
2018-10-16T13:26:37.621Z,62.40
2018-10-16T13:29:10.510Z,58.90
2018-10-16T13:31:43.191Z,56.10
2018-10-16T13:34:16.015Z,51.80
2018-10-16T13:36:48.690Z,49.80
2018-10-16T13:39:21.605Z,48.70
2018-10-16T13:41:54.394Z,50.10
2018-10-16T13:44:27.113Z,50.60
2018-10-16T13:47:00.110Z,49.80
2018-10-16T13:49:33.003Z,50.00
2018-10-16T13:52:05.837Z,50.30
2018-10-16T13:54:38.562Z,52.40
2018-10-16T13:57:11.402Z,54.40
2018-10-16T13:59:44.063Z,53.70
2018-10-16T14:02:16.941Z,52.50
2018-10-16T14:04:49.761Z,53.80
2018-10-16T14:07:22.647Z,55.10
2018-10-16T14:09:55.456Z,57.40
2018-10-16T14:12:28.117Z,58.60
2018-10-16T14:15:00.947Z,59.50
2018-10-16T14:17:33.637Z,60.40
2018-10-16T14:20:06.899Z,61.70
2018-10-16T14:22:40.865Z,62.30
2018-10-16T14:25:16.033Z,63.30
2018-10-16T14:27:48.793Z,65.00
2018-10-16T14:30:21.821Z,65.00
2018-10-16T14:32:54.714Z,65.00
2018-10-16T14:35:27.597Z,63.60
2018-10-16T14:38:00.323Z,63.80
2018-10-16T14:40:33.100Z,64.70
2018-10-16T14:43:05.768Z,66.50
2018-10-16T14:45:38.575Z,66.90
2018-10-16T14:48:11.460Z,68.00
2018-10-16T14:50:44.118Z,68.80
2018-10-16T14:53:16.997Z,68.50
2018-10-16T14:55:49.761Z,68.80
2018-10-16T14:58:22.590Z,68.50
2018-10-16T15:00:55.607Z,68.80
2018-10-16T15:03:28.518Z,69.50
2018-10-16T15:06:01.275Z,69.90
2018-10-16T15:08:34.006Z,71.20
2018-10-16T15:11:06.767Z,72.20
2018-10-16T15:13:39.582Z,71.60
2018-10-16T15:16:12.550Z,71.50
2018-10-16T15:18:45.355Z,71.40
2018-10-16T15:21:18.930Z,72.70
2018-10-16T15:23:51.846Z,72.70
2018-10-16T15:26:24.644Z,72.40
2018-10-16T15:28:57.588Z,72.40
2018-10-16T15:31:30.297Z,72.20
2018-10-16T15:34:03.062Z,72.60
2018-10-16T15:36:35.842Z,73.20
2018-10-16T15:39:09.693Z,73.00
2018-10-16T15:41:42.655Z,73.60
2018-10-16T15:44:15.505Z,74.20
2018-10-16T15:46:48.389Z,74.70
2018-10-16T15:49:21.125Z,75.70
2018-10-16T15:51:54.062Z,76.20
2018-10-16T15:54:26.846Z,76.80
2018-10-16T15:56:59.579Z,77.40
2018-10-16T15:59:32.337Z,77.90
2018-10-16T16:02:05.319Z,78.00
2018-10-16T16:04:38.207Z,79.10
2018-10-16T16:07:10.934Z,79.70
2018-10-16T16:09:43.679Z,80.10
2018-10-16T16:12:16.430Z,80.70
2018-10-16T16:14:49.056Z,81.70
2018-10-16T16:17:21.891Z,82.20
2018-10-16T16:19:54.774Z,82.70
2018-10-16T16:22:27.693Z,83.30
2018-10-16T16:25:00.517Z,83.70
2018-10-16T16:27:33.191Z,84.10
2018-10-16T16:30:07.159Z,84.30
2018-10-16T16:32:39.940Z,84.90
2018-10-16T16:35:12.754Z,85.10
2018-10-16T16:37:45.383Z,85.00
2018-10-16T16:40:18.132Z,86.10
2018-10-16T16:42:50.867Z,87.20
2018-10-16T16:45:23.663Z,87.60
2018-10-16T16:47:56.554Z,88.00
2018-10-16T16:50:29.324Z,87.90
2018-10-16T16:53:02.070Z,88.70
2018-10-16T16:55:34.926Z,89.20
2018-10-16T16:58:07.730Z,89.80
2018-10-16T17:00:40.346Z,90.20
2018-10-16T17:03:13.218Z,90.70
2018-10-16T17:05:46.035Z,91.00
2018-10-16T17:08:18.759Z,91.60
2018-10-16T17:10:51.411Z,92.30
2018-10-16T17:13:24.334Z,92.90
2018-10-16T17:15:57.122Z,93.30
2018-10-16T17:18:29.916Z,94.00
2018-10-16T17:21:02.665Z,94.70
2018-10-16T17:23:35.647Z,95.30
2018-10-16T17:26:08.809Z,96.00
2018-10-16T17:28:41.504Z,96.50
2018-10-16T17:31:14.254Z,96.90
2018-10-16T17:33:47.178Z,97.40
2018-10-16T17:36:19.994Z,98.00
2018-10-16T17:38:52.993Z,98.10
2018-10-16T17:41:25.954Z,98.30
2018-10-16T17:43:58.829Z,98.70
2018-10-16T17:46:31.654Z,98.80
2018-10-16T17:49:04.865Z,98.50
2018-10-16T17:51:37.658Z,99.00
2018-10-16T17:54:10.546Z,99.10
2018-10-16T17:56:43.443Z,98.90
2018-10-16T17:59:16.170Z,99.10
2018-10-16T18:01:48.890Z,98.80
2018-10-16T18:04:22.335Z,98.90
2018-10-16T18:06:55.283Z,98.90
2018-10-16T18:09:27.981Z,99.00
2018-10-16T18:12:00.731Z,99.00
2018-10-16T18:14:33.549Z,99.40
2018-10-16T18:17:06.311Z,99.90
2018-10-16T18:19:39.082Z,99.90
2018-10-16T18:22:11.961Z,99.90
2018-10-16T18:24:44.679Z,99.90
2018-10-16T18:27:17.633Z,99.90
2018-10-16T18:29:50.474Z,99.90
2018-10-16T18:32:23.164Z,99.90
2018-10-16T18:34:56.048Z,99.90
2018-10-16T18:37:28.887Z,99.90
2018-10-16T18:40:01.827Z,99.90
2018-10-16T18:42:34.506Z,99.90
2018-10-16T18:45:07.663Z,99.90
2018-10-16T18:47:40.366Z,99.90
2018-10-16T18:50:13.883Z,99.90
2018-10-16T18:52:46.835Z,99.90
2018-10-16T18:55:19.556Z,99.90
2018-10-16T18:57:52.294Z,99.90
2018-10-16T19:00:25.066Z,99.90
2018-10-16T19:02:57.987Z,99.90
2018-10-16T19:05:30.828Z,99.90
2018-10-16T19:08:03.793Z,99.90
2018-10-16T19:10:36.513Z,99.90
2018-10-16T19:13:09.237Z,99.90
2018-10-16T19:15:41.934Z,99.90
2018-10-16T19:18:14.686Z,99.90
2018-10-16T19:20:47.574Z,99.90
2018-10-16T19:23:20.337Z,99.90
2018-10-16T19:25:53.102Z,99.90
2018-10-16T19:28:25.910Z,99.90
2018-10-16T19:30:58.753Z,99.90
2018-10-16T19:33:31.597Z,99.90
2018-10-16T19:36:04.524Z,99.90
2018-10-16T19:38:37.382Z,99.90
2018-10-16T19:41:10.054Z,99.90
2018-10-16T19:43:42.770Z,99.90
2018-10-16T19:46:15.595Z,99.90
2018-10-16T19:48:48.274Z,99.90
2018-10-16T19:51:21.073Z,99.90
2018-10-16T19:53:53.797Z,99.90
2018-10-16T19:56:26.470Z,99.90
2018-10-16T19:58:59.303Z,99.90
2018-10-16T20:01:32.169Z,99.90
2018-10-16T20:04:04.910Z,99.90
2018-10-16T20:06:37.585Z,99.90
2018-10-16T20:09:11.320Z,99.90
2018-10-16T20:11:44.081Z,99.90
2018-10-16T20:14:16.882Z,99.90
2018-10-16T20:16:49.948Z,99.90
2018-10-16T20:19:22.849Z,99.90
2018-10-16T20:21:55.750Z,99.90
2018-10-16T20:24:28.548Z,99.90
2018-10-16T20:27:01.181Z,99.90
2018-10-16T20:29:34.002Z,99.90
2018-10-16T20:32:06.708Z,99.90
2018-10-16T20:34:39.425Z,99.90
2018-10-16T20:37:12.311Z,99.90
2018-10-16T20:39:45.074Z,99.90
2018-10-16T20:42:17.806Z,99.90
2018-10-16T20:44:50.573Z,99.90
2018-10-16T20:47:23.475Z,99.90
2018-10-16T20:49:56.202Z,99.90
2018-10-16T20:52:29.034Z,99.90
2018-10-16T20:55:01.858Z,99.90
2018-10-16T20:57:34.579Z,99.90
2018-10-16T21:00:07.482Z,99.90
2018-10-16T21:02:40.210Z,99.90
2018-10-16T21:05:13.251Z,99.90
2018-10-16T21:07:45.974Z,99.90
2018-10-16T21:10:18.824Z,99.90
2018-10-16T21:12:51.608Z,99.90
2018-10-16T21:15:24.541Z,99.90
2018-10-16T21:17:57.358Z,99.90
2018-10-16T21:20:30.229Z,99.90
2018-10-16T21:23:03.188Z,99.90
2018-10-16T21:25:36.033Z,99.90
2018-10-16T21:28:08.773Z,99.90
2018-10-16T21:30:41.589Z,99.90
2018-10-16T21:33:14.385Z,99.90
2018-10-16T21:35:47.164Z,99.90
2018-10-16T21:38:19.906Z,99.90
2018-10-16T21:40:52.881Z,99.90
2018-10-16T21:43:25.853Z,99.90
2018-10-16T21:45:58.870Z,99.90
2018-10-16T21:48:31.697Z,99.90
2018-10-16T21:51:04.577Z,99.90
2018-10-16T21:53:37.437Z,99.90
2018-10-16T21:56:10.185Z,99.90
2018-10-16T21:58:42.852Z,99.90
2018-10-16T22:01:15.590Z,99.90
2018-10-16T22:03:48.245Z,99.90
2018-10-16T22:06:20.930Z,99.90
2018-10-16T22:08:53.705Z,99.90
2018-10-16T22:11:26.535Z,99.90
2018-10-16T22:13:59.265Z,99.90
2018-10-16T22:16:31.945Z,99.90
2018-10-16T22:19:04.718Z,99.90
2018-10-16T22:21:37.425Z,99.90
2018-10-16T22:24:10.337Z,99.90
2018-10-16T22:26:43.045Z,99.90
2018-10-16T22:29:15.828Z,99.90
2018-10-16T22:31:48.514Z,99.90
2018-10-16T22:34:21.184Z,99.90
2018-10-16T22:36:54.120Z,99.90
2018-10-16T22:39:26.961Z,99.90
2018-10-16T22:41:59.781Z,99.90
2018-10-16T22:44:32.648Z,99.90
2018-10-16T22:47:05.354Z,99.90
2018-10-16T22:49:38.109Z,99.90
2018-10-16T22:52:11.076Z,99.90
2018-10-16T22:54:43.993Z,99.90
2018-10-16T22:57:16.920Z,99.90
2018-10-16T22:59:49.652Z,99.90
2018-10-16T23:02:22.442Z,99.90
2018-10-16T23:04:55.523Z,99.90
2018-10-16T23:07:28.229Z,99.90
2018-10-16T23:10:01.132Z,99.90
2018-10-16T23:12:33.925Z,99.90
2018-10-16T23:15:07.413Z,99.90
2018-10-16T23:17:40.270Z,99.90
2018-10-16T23:20:13.029Z,99.90
2018-10-16T23:22:45.672Z,99.90
2018-10-16T23:25:18.548Z,99.90
2018-10-16T23:27:51.318Z,99.90
2018-10-16T23:30:24.125Z,99.90
2018-10-16T23:32:57.013Z,99.90
2018-10-16T23:35:29.767Z,99.90
2018-10-16T23:38:02.492Z,99.90
2018-10-16T23:40:35.241Z,99.90
2018-10-16T23:43:08.040Z,99.90
2018-10-16T23:45:40.769Z,99.90
2018-10-16T23:48:13.456Z,99.90
2018-10-16T23:50:46.238Z,99.90
2018-10-16T23:53:18.981Z,99.90
2018-10-16T23:55:51.750Z,99.90
2018-10-16T23:58:24.565Z,99.90
